sensor_id;sensor_type;location;lat;lon;timestamp;temperature;humidity
12089;DHT22;6107;49.078;8.578;2024-01-30T00:00:05;0.90;99.90
12089;DHT22;6107;49.078;8.578;2024-01-30T00:02:32;0.90;99.90
12089;DHT22;6107;49.078;8.578;2024-01-30T00:04:57;1.10;99.90
12089;DHT22;6107;49.078;8.578;2024-01-30T00:07:23;1.20;99.90
12089;DHT22;6107;49.078;8.578;2024-01-30T00:09:48;1.10;99.90
12089;DHT22;6107;49.078;8.578;2024-01-30T00:12:14;1.30;99.90
12089;DHT22;6107;49.078;8.578;2024-01-30T00:14:42;1.40;99.90
12089;DHT22;6107;49.078;8.578;2024-01-30T00:17:09;1.30;99.90
12089;DHT22;6107;49.078;8.578;2024-01-30T00:19:35;1.10;99.90
12089;DHT22;6107;49.078;8.578;2024-01-30T00:22:00;1.10;99.90
12089;DHT22;6107;49.078;8.578;2024-01-30T00:24:26;1.00;99.90
12089;DHT22;6107;49.078;8.578;2024-01-30T00:26:51;1.00;99.90
12089;DHT22;6107;49.078;8.578;2024-01-30T00:29:17;1.10;99.90
12089;DHT22;6107;49.078;8.578;2024-01-30T00:31:45;1.20;99.90
12089;DHT22;6107;49.078;8.578;2024-01-30T00:34:11;1.20;99.90
12089;DHT22;6107;49.078;8.578;2024-01-30T00:36:37;1.10;99.90
12089;DHT22;6107;49.078;8.578;2024-01-30T00:39:02;1.10;99.90
12089;DHT22;6107;49.078;8.578;2024-01-30T00:41:32;1.20;99.90
12089;DHT22;6107;49.078;8.578;2024-01-30T00:43:57;1.10;99.90
12089;DHT22;6107;49.078;8.578;2024-01-30T00:46:23;1.00;99.90
12089;DHT22;6107;49.078;8.578;2024-01-30T00:48:48;0.70;99.90
12089;DHT22;6107;49.078;8.578;2024-01-30T00:51:14;0.70;99.90
12089;DHT22;6107;49.078;8.578;2024-01-30T00:53:40;0.80;99.90
12089;DHT22;6107;49.078;8.578;2024-01-30T00:56:07;0.90;99.90
12089;DHT22;6107;49.078;8.578;2024-01-30T00:58:33;1.10;99.90
12089;DHT22;6107;49.078;8.578;2024-01-30T01:00:59;1.00;99.90
12089;DHT22;6107;49.078;8.578;2024-01-30T01:03:24;1.00;99.90
12089;DHT22;6107;49.078;8.578;2024-01-30T01:05:50;0.80;99.90
12089;DHT22;6107;49.078;8.578;2024-01-30T01:08:16;0.40;99.90
12089;DHT22;6107;49.078;8.578;2024-01-30T01:10:41;0.40;99.90
12089;DHT22;6107;49.078;8.578;2024-01-30T01:13:07;0.60;99.90
12089;DHT22;6107;49.078;8.578;2024-01-30T01:15:33;0.90;99.90
12089;DHT22;6107;49.078;8.578;2024-01-30T01:17:58;0.80;99.90
12089;DHT22;6107;49.078;8.578;2024-01-30T01:20:24;0.70;99.90
12089;DHT22;6107;49.078;8.578;2024-01-30T01:22:49;0.50;99.90
12089;DHT22;6107;49.078;8.578;2024-01-30T01:25:15;0.70;99.90
12089;DHT22;6107;49.078;8.578;2024-01-30T01:27:41;0.90;99.90
12089;DHT22;6107;49.078;8.578;2024-01-30T01:30:09;1.10;99.90
12089;DHT22;6107;49.078;8.578;2024-01-30T01:32:35;1.10;99.90
12089;DHT22;6107;49.078;8.578;2024-01-30T01:35:01;1.00;99.90
12089;DHT22;6107;49.078;8.578;2024-01-30T01:37:27;0.90;99.90
12089;DHT22;6107;49.078;8.578;2024-01-30T01:39:53;0.90;99.90
12089;DHT22;6107;49.078;8.578;2024-01-30T01:42:19;0.70;99.90
12089;DHT22;6107;49.078;8.578;2024-01-30T01:44:44;0.60;99.90
12089;DHT22;6107;49.078;8.578;2024-01-30T01:47:10;0.60;99.90
12089;DHT22;6107;49.078;8.578;2024-01-30T01:49:36;0.70;99.90
12089;DHT22;6107;49.078;8.578;2024-01-30T01:52:01;0.80;99.90
12089;DHT22;6107;49.078;8.578;2024-01-30T01:54:28;0.90;99.90
12089;DHT22;6107;49.078;8.578;2024-01-30T01:56:54;1.00;99.90
12089;DHT22;6107;49.078;8.578;2024-01-30T01:59:20;0.80;99.90
12089;DHT22;6107;49.078;8.578;2024-01-30T02:01:47;0.50;99.90
12089;DHT22;6107;49.078;8.578;2024-01-30T02:04:16;0.50;99.90
12089;DHT22;6107;49.078;8.578;2024-01-30T02:06:43;0.60;99.90
12089;DHT22;6107;49.078;8.578;2024-01-30T02:09:09;0.70;99.90
12089;DHT22;6107;49.078;8.578;2024-01-30T02:11:34;0.70;99.90
12089;DHT22;6107;49.078;8.578;2024-01-30T02:14:04;0.90;99.90
12089;DHT22;6107;49.078;8.578;2024-01-30T02:16:30;0.50;99.90
12089;DHT22;6107;49.078;8.578;2024-01-30T02:18:55;0.50;99.90
12089;DHT22;6107;49.078;8.578;2024-01-30T02:21:21;0.80;99.90
12089;DHT22;6107;49.078;8.578;2024-01-30T02:23:47;0.60;99.90
12089;DHT22;6107;49.078;8.578;2024-01-30T02:26:13;0.60;99.90
12089;DHT22;6107;49.078;8.578;2024-01-30T02:28:39;0.80;99.90
12089;DHT22;6107;49.078;8.578;2024-01-30T02:31:05;0.50;99.90
12089;DHT22;6107;49.078;8.578;2024-01-30T02:33:31;0.20;99.90
12089;DHT22;6107;49.078;8.578;2024-01-30T02:35:57;0.10;99.90
12089;DHT22;6107;49.078;8.578;2024-01-30T02:38:22;0.20;99.90
12089;DHT22;6107;49.078;8.578;2024-01-30T02:40:49;0.30;99.90
12089;DHT22;6107;49.078;8.578;2024-01-30T02:43:16;0.20;99.90
12089;DHT22;6107;49.078;8.578;2024-01-30T02:45:41;0.40;99.90
12089;DHT22;6107;49.078;8.578;2024-01-30T02:48:07;0.70;99.90
12089;DHT22;6107;49.078;8.578;2024-01-30T02:50:33;0.90;99.90
12089;DHT22;6107;49.078;8.578;2024-01-30T02:52:59;0.60;99.90
12089;DHT22;6107;49.078;8.578;2024-01-30T02:55:24;0.40;99.90
12089;DHT22;6107;49.078;8.578;2024-01-30T02:57:50;0.50;99.90
12089;DHT22;6107;49.078;8.578;2024-01-30T03:00:16;0.00;99.90
12089;DHT22;6107;49.078;8.578;2024-01-30T03:02:41;0.00;99.90
12089;DHT22;6107;49.078;8.578;2024-01-30T03:05:08;0.00;99.90
12089;DHT22;6107;49.078;8.578;2024-01-30T03:07:33;0.00;99.90
12089;DHT22;6107;49.078;8.578;2024-01-30T03:09:59;0.30;99.90
12089;DHT22;6107;49.078;8.578;2024-01-30T03:12:25;0.50;99.90
12089;DHT22;6107;49.078;8.578;2024-01-30T03:14:50;0.50;99.90
12089;DHT22;6107;49.078;8.578;2024-01-30T03:17:16;0.40;99.90
12089;DHT22;6107;49.078;8.578;2024-01-30T03:19:41;0.10;99.90
12089;DHT22;6107;49.078;8.578;2024-01-30T03:22:07;0.00;99.90
12089;DHT22;6107;49.078;8.578;2024-01-30T03:24:33;0.10;99.90
12089;DHT22;6107;49.078;8.578;2024-01-30T03:26:58;-0.10;99.90
12089;DHT22;6107;49.078;8.578;2024-01-30T03:29:24;-0.30;99.90
12089;DHT22;6107;49.078;8.578;2024-01-30T03:31:50;-0.30;99.90
12089;DHT22;6107;49.078;8.578;2024-01-30T03:34:15;-0.20;99.90
12089;DHT22;6107;49.078;8.578;2024-01-30T03:36:41;-0.10;99.90
12089;DHT22;6107;49.078;8.578;2024-01-30T03:39:07;-0.40;99.90
12089;DHT22;6107;49.078;8.578;2024-01-30T03:41:32;-0.20;99.90
12089;DHT22;6107;49.078;8.578;2024-01-30T03:43:58;-0.20;99.90
12089;DHT22;6107;49.078;8.578;2024-01-30T03:46:24;-0.30;99.90
12089;DHT22;6107;49.078;8.578;2024-01-30T03:48:50;-0.20;99.90
12089;DHT22;6107;49.078;8.578;2024-01-30T03:51:15;0.10;99.90
12089;DHT22;6107;49.078;8.578;2024-01-30T03:53:44;0.40;99.90
12089;DHT22;6107;49.078;8.578;2024-01-30T03:56:11;0.30;99.90
12089;DHT22;6107;49.078;8.578;2024-01-30T03:58:39;-0.10;99.90
12089;DHT22;6107;49.078;8.578;2024-01-30T04:01:05;0.10;99.90
12089;DHT22;6107;49.078;8.578;2024-01-30T04:03:31;0.30;99.90
12089;DHT22;6107;49.078;8.578;2024-01-30T04:05:57;0.10;99.90
12089;DHT22;6107;49.078;8.578;2024-01-30T04:08:22;-0.10;99.90
12089;DHT22;6107;49.078;8.578;2024-01-30T04:10:48;0.30;99.90
12089;DHT22;6107;49.078;8.578;2024-01-30T04:13:14;0.30;99.90
12089;DHT22;6107;49.078;8.578;2024-01-30T04:15:39;0.10;99.90
12089;DHT22;6107;49.078;8.578;2024-01-30T04:18:05;0.00;99.90
12089;DHT22;6107;49.078;8.578;2024-01-30T04:20:31;-0.10;99.90
12089;DHT22;6107;49.078;8.578;2024-01-30T04:22:57;0.00;99.90
12089;DHT22;6107;49.078;8.578;2024-01-30T04:25:22;0.20;99.90
12089;DHT22;6107;49.078;8.578;2024-01-30T04:27:48;0.00;99.90
12089;DHT22;6107;49.078;8.578;2024-01-30T04:30:14;-0.10;99.90
12089;DHT22;6107;49.078;8.578;2024-01-30T04:32:40;0.10;99.90
12089;DHT22;6107;49.078;8.578;2024-01-30T04:35:05;0.20;99.90
12089;DHT22;6107;49.078;8.578;2024-01-30T04:37:31;0.00;99.90
12089;DHT22;6107;49.078;8.578;2024-01-30T04:39:57;-0.50;99.90
12089;DHT22;6107;49.078;8.578;2024-01-30T04:42:22;-0.40;99.90
12089;DHT22;6107;49.078;8.578;2024-01-30T04:44:48;-0.30;99.90
12089;DHT22;6107;49.078;8.578;2024-01-30T04:47:14;-0.10;99.90
12089;DHT22;6107;49.078;8.578;2024-01-30T04:49:39;-0.10;99.90
12089;DHT22;6107;49.078;8.578;2024-01-30T04:52:06;0.00;99.90
12089;DHT22;6107;49.078;8.578;2024-01-30T04:54:31;0.20;99.90
12089;DHT22;6107;49.078;8.578;2024-01-30T04:56:57;0.20;99.90
12089;DHT22;6107;49.078;8.578;2024-01-30T04:59:23;-0.20;99.90
12089;DHT22;6107;49.078;8.578;2024-01-30T05:01:49;-0.30;99.90
12089;DHT22;6107;49.078;8.578;2024-01-30T05:04:15;-0.30;99.90
12089;DHT22;6107;49.078;8.578;2024-01-30T05:06:40;-0.30;99.90
12089;DHT22;6107;49.078;8.578;2024-01-30T05:09:06;-0.40;99.90
12089;DHT22;6107;49.078;8.578;2024-01-30T05:11:37;-0.10;99.90
12089;DHT22;6107;49.078;8.578;2024-01-30T05:14:03;0.00;99.90
12089;DHT22;6107;49.078;8.578;2024-01-30T05:16:29;-0.10;99.90
12089;DHT22;6107;49.078;8.578;2024-01-30T05:18:54;0.00;99.90
12089;DHT22;6107;49.078;8.578;2024-01-30T05:21:20;-0.10;99.90
12089;DHT22;6107;49.078;8.578;2024-01-30T05:23:45;-0.40;99.90
12089;DHT22;6107;49.078;8.578;2024-01-30T05:26:11;-0.30;99.90
12089;DHT22;6107;49.078;8.578;2024-01-30T05:28:37;0.00;99.90
12089;DHT22;6107;49.078;8.578;2024-01-30T05:31:03;-0.10;99.90
12089;DHT22;6107;49.078;8.578;2024-01-30T05:33:28;-0.30;99.90
12089;DHT22;6107;49.078;8.578;2024-01-30T05:35:54;-0.40;99.90
12089;DHT22;6107;49.078;8.578;2024-01-30T05:38:20;-0.30;99.90
12089;DHT22;6107;49.078;8.578;2024-01-30T05:40:45;-0.10;99.90
12089;DHT22;6107;49.078;8.578;2024-01-30T05:43:11;0.10;99.90
12089;DHT22;6107;49.078;8.578;2024-01-30T05:45:37;0.20;99.90
12089;DHT22;6107;49.078;8.578;2024-01-30T05:48:03;0.30;99.90
12089;DHT22;6107;49.078;8.578;2024-01-30T05:50:28;0.00;99.90
12089;DHT22;6107;49.078;8.578;2024-01-30T05:52:54;-0.10;99.90
12089;DHT22;6107;49.078;8.578;2024-01-30T05:55:20;-0.40;99.90
12089;DHT22;6107;49.078;8.578;2024-01-30T05:57:45;-0.40;99.90
12089;DHT22;6107;49.078;8.578;2024-01-30T06:00:11;-0.60;99.90
12089;DHT22;6107;49.078;8.578;2024-01-30T06:02:37;-0.50;99.90
12089;DHT22;6107;49.078;8.578;2024-01-30T06:05:02;-0.40;99.90
12089;DHT22;6107;49.078;8.578;2024-01-30T06:07:28;-0.10;99.90
12089;DHT22;6107;49.078;8.578;2024-01-30T06:09:54;0.20;99.90
12089;DHT22;6107;49.078;8.578;2024-01-30T06:12:19;0.20;99.90
12089;DHT22;6107;49.078;8.578;2024-01-30T06:14:45;0.00;99.90
12089;DHT22;6107;49.078;8.578;2024-01-30T06:17:11;0.10;99.90
12089;DHT22;6107;49.078;8.578;2024-01-30T06:19:40;0.10;99.90
12089;DHT22;6107;49.078;8.578;2024-01-30T06:22:06;0.10;99.90
12089;DHT22;6107;49.078;8.578;2024-01-30T06:24:32;-0.40;99.90
12089;DHT22;6107;49.078;8.578;2024-01-30T06:26:59;-0.40;99.90
12089;DHT22;6107;49.078;8.578;2024-01-30T06:29:24;-0.30;99.90
12089;DHT22;6107;49.078;8.578;2024-01-30T06:31:52;-0.10;99.90
12089;DHT22;6107;49.078;8.578;2024-01-30T06:34:17;0.10;99.90
12089;DHT22;6107;49.078;8.578;2024-01-30T06:36:43;0.10;99.90
12089;DHT22;6107;49.078;8.578;2024-01-30T06:39:08;-0.20;99.90
12089;DHT22;6107;49.078;8.578;2024-01-30T06:41:34;0.00;99.90
12089;DHT22;6107;49.078;8.578;2024-01-30T06:44:02;0.20;99.90
12089;DHT22;6107;49.078;8.578;2024-01-30T06:46:29;0.20;99.90
12089;DHT22;6107;49.078;8.578;2024-01-30T06:48:55;0.20;99.90
12089;DHT22;6107;49.078;8.578;2024-01-30T06:51:21;0.20;99.90
12089;DHT22;6107;49.078;8.578;2024-01-30T06:53:47;0.10;99.90
12089;DHT22;6107;49.078;8.578;2024-01-30T06:56:13;0.00;99.90
12089;DHT22;6107;49.078;8.578;2024-01-30T06:58:38;-0.10;99.90
12089;DHT22;6107;49.078;8.578;2024-01-30T07:01:04;0.10;99.90
12089;DHT22;6107;49.078;8.578;2024-01-30T07:03:30;0.20;99.90
12089;DHT22;6107;49.078;8.578;2024-01-30T07:05:55;0.30;99.90
12089;DHT22;6107;49.078;8.578;2024-01-30T07:08:21;0.00;99.90
12089;DHT22;6107;49.078;8.578;2024-01-30T07:10:47;0.20;99.90
12089;DHT22;6107;49.078;8.578;2024-01-30T07:13:13;0.40;99.90
12089;DHT22;6107;49.078;8.578;2024-01-30T07:15:42;0.40;99.90
12089;DHT22;6107;49.078;8.578;2024-01-30T07:18:07;0.40;99.90
12089;DHT22;6107;49.078;8.578;2024-01-30T07:20:33;0.40;99.90
12089;DHT22;6107;49.078;8.578;2024-01-30T07:22:59;0.40;99.90
12089;DHT22;6107;49.078;8.578;2024-01-30T07:25:24;0.60;99.90
12089;DHT22;6107;49.078;8.578;2024-01-30T07:27:54;0.60;99.90
12089;DHT22;6107;49.078;8.578;2024-01-30T07:30:20;0.60;99.90
12089;DHT22;6107;49.078;8.578;2024-01-30T07:32:46;0.80;99.90
12089;DHT22;6107;49.078;8.578;2024-01-30T07:35:12;0.60;99.90
12089;DHT22;6107;49.078;8.578;2024-01-30T07:37:38;0.70;99.90
12089;DHT22;6107;49.078;8.578;2024-01-30T07:40:04;0.60;99.90
12089;DHT22;6107;49.078;8.578;2024-01-30T07:42:30;0.60;99.90
12089;DHT22;6107;49.078;8.578;2024-01-30T07:44:55;0.60;99.90
12089;DHT22;6107;49.078;8.578;2024-01-30T07:47:21;0.70;99.90
12089;DHT22;6107;49.078;8.578;2024-01-30T07:49:47;0.80;99.90
12089;DHT22;6107;49.078;8.578;2024-01-30T07:52:13;0.80;99.90
12089;DHT22;6107;49.078;8.578;2024-01-30T07:54:38;0.90;99.90
12089;DHT22;6107;49.078;8.578;2024-01-30T07:57:04;1.10;99.90
12089;DHT22;6107;49.078;8.578;2024-01-30T07:59:30;1.00;99.90
12089;DHT22;6107;49.078;8.578;2024-01-30T08:01:55;1.10;99.90
12089;DHT22;6107;49.078;8.578;2024-01-30T08:04:21;1.10;99.90
12089;DHT22;6107;49.078;8.578;2024-01-30T08:06:47;1.00;99.90
12089;DHT22;6107;49.078;8.578;2024-01-30T08:09:12;1.00;99.90
12089;DHT22;6107;49.078;8.578;2024-01-30T08:11:38;0.80;99.90
12089;DHT22;6107;49.078;8.578;2024-01-30T08:14:08;0.80;99.90
12089;DHT22;6107;49.078;8.578;2024-01-30T08:16:40;1.20;99.90
12089;DHT22;6107;49.078;8.578;2024-01-30T08:19:05;1.20;99.90
12089;DHT22;6107;49.078;8.578;2024-01-30T08:21:31;1.30;99.90
12089;DHT22;6107;49.078;8.578;2024-01-30T08:24:04;1.30;99.90
12089;DHT22;6107;49.078;8.578;2024-01-30T08:26:30;1.50;99.90
12089;DHT22;6107;49.078;8.578;2024-01-30T08:28:56;1.50;99.90
12089;DHT22;6107;49.078;8.578;2024-01-30T08:31:22;1.60;99.90
12089;DHT22;6107;49.078;8.578;2024-01-30T08:33:47;1.70;99.90
12089;DHT22;6107;49.078;8.578;2024-01-30T08:36:13;1.50;99.90
12089;DHT22;6107;49.078;8.578;2024-01-30T08:38:38;1.80;99.90
12089;DHT22;6107;49.078;8.578;2024-01-30T08:41:04;2.00;99.90
12089;DHT22;6107;49.078;8.578;2024-01-30T08:43:30;2.10;99.90
12089;DHT22;6107;49.078;8.578;2024-01-30T08:46:02;2.20;99.90
12089;DHT22;6107;49.078;8.578;2024-01-30T08:48:27;2.40;99.90
12089;DHT22;6107;49.078;8.578;2024-01-30T08:50:53;2.40;99.90
12089;DHT22;6107;49.078;8.578;2024-01-30T08:53:19;2.70;99.90
12089;DHT22;6107;49.078;8.578;2024-01-30T08:55:45;2.90;99.90
12089;DHT22;6107;49.078;8.578;2024-01-30T08:58:11;3.50;99.90
12089;DHT22;6107;49.078;8.578;2024-01-30T09:00:37;2.80;99.90
12089;DHT22;6107;49.078;8.578;2024-01-30T09:03:03;2.70;99.90
12089;DHT22;6107;49.078;8.578;2024-01-30T09:05:29;2.90;99.90
12089;DHT22;6107;49.078;8.578;2024-01-30T09:07:55;2.70;99.90
12089;DHT22;6107;49.078;8.578;2024-01-30T09:10:20;4.20;99.90
12089;DHT22;6107;49.078;8.578;2024-01-30T09:12:47;3.70;99.90
12089;DHT22;6107;49.078;8.578;2024-01-30T09:15:13;3.30;99.90
12089;DHT22;6107;49.078;8.578;2024-01-30T09:17:38;3.10;99.90
12089;DHT22;6107;49.078;8.578;2024-01-30T09:20:04;3.20;99.90
12089;DHT22;6107;49.078;8.578;2024-01-30T09:22:30;3.20;99.90
12089;DHT22;6107;49.078;8.578;2024-01-30T09:24:57;3.30;99.90
12089;DHT22;6107;49.078;8.578;2024-01-30T09:27:22;3.30;99.90
12089;DHT22;6107;49.078;8.578;2024-01-30T09:29:48;3.40;99.90
12089;DHT22;6107;49.078;8.578;2024-01-30T09:32:13;3.60;99.90
12089;DHT22;6107;49.078;8.578;2024-01-30T09:34:39;3.60;99.90
12089;DHT22;6107;49.078;8.578;2024-01-30T09:37:05;3.60;99.90
12089;DHT22;6107;49.078;8.578;2024-01-30T09:39:30;3.70;99.90
12089;DHT22;6107;49.078;8.578;2024-01-30T09:44:34;4.00;99.90
12089;DHT22;6107;49.078;8.578;2024-01-30T09:47:01;4.10;99.90
12089;DHT22;6107;49.078;8.578;2024-01-30T09:49:33;4.20;99.90
12089;DHT22;6107;49.078;8.578;2024-01-30T09:52:00;4.40;99.90
12089;DHT22;6107;49.078;8.578;2024-01-30T09:54:25;4.40;99.90
12089;DHT22;6107;49.078;8.578;2024-01-30T09:56:51;4.50;99.90
12089;DHT22;6107;49.078;8.578;2024-01-30T09:59:16;4.70;99.90
12089;DHT22;6107;49.078;8.578;2024-01-30T10:01:42;4.70;99.90
12089;DHT22;6107;49.078;8.578;2024-01-30T10:04:08;4.90;99.90
12089;DHT22;6107;49.078;8.578;2024-01-30T10:06:34;5.00;99.90
12089;DHT22;6107;49.078;8.578;2024-01-30T10:09:00;5.10;99.90
12089;DHT22;6107;49.078;8.578;2024-01-30T10:11:25;5.10;99.90
12089;DHT22;6107;49.078;8.578;2024-01-30T10:13:51;5.30;99.90
12089;DHT22;6107;49.078;8.578;2024-01-30T10:16:17;5.40;99.90
12089;DHT22;6107;49.078;8.578;2024-01-30T10:18:42;5.50;99.90
12089;DHT22;6107;49.078;8.578;2024-01-30T10:21:11;5.60;99.90
12089;DHT22;6107;49.078;8.578;2024-01-30T10:26:04;7.00;99.90
12089;DHT22;6107;49.078;8.578;2024-01-30T10:28:30;6.40;99.90
12089;DHT22;6107;49.078;8.578;2024-01-30T10:31:00;6.20;99.90
12089;DHT22;6107;49.078;8.578;2024-01-30T10:33:26;6.20;99.90
12089;DHT22;6107;49.078;8.578;2024-01-30T10:35:56;6.20;99.90
12089;DHT22;6107;49.078;8.578;2024-01-30T10:38:28;6.20;99.90
12089;DHT22;6107;49.078;8.578;2024-01-30T10:40:57;6.20;99.90
12089;DHT22;6107;49.078;8.578;2024-01-30T10:43:23;6.40;99.90
12089;DHT22;6107;49.078;8.578;2024-01-30T10:45:49;6.40;99.90
12089;DHT22;6107;49.078;8.578;2024-01-30T10:48:19;6.70;99.90
12089;DHT22;6107;49.078;8.578;2024-01-30T10:50:48;6.70;99.90
12089;DHT22;6107;49.078;8.578;2024-01-30T10:53:17;6.70;99.90
12089;DHT22;6107;49.078;8.578;2024-01-30T10:55:43;6.80;99.90
12089;DHT22;6107;49.078;8.578;2024-01-30T10:58:10;6.90;99.90
12089;DHT22;6107;49.078;8.578;2024-01-30T11:00:37;7.20;99.90
12089;DHT22;6107;49.078;8.578;2024-01-30T11:03:04;7.40;99.90
12089;DHT22;6107;49.078;8.578;2024-01-30T11:05:30;7.60;99.90
12089;DHT22;6107;49.078;8.578;2024-01-30T11:07:56;7.80;99.90
12089;DHT22;6107;49.078;8.578;2024-01-30T11:10:24;8.00;99.90
12089;DHT22;6107;49.078;8.578;2024-01-30T11:12:50;8.20;99.90
12089;DHT22;6107;49.078;8.578;2024-01-30T11:15:17;8.30;99.90
12089;DHT22;6107;49.078;8.578;2024-01-30T11:20:16;8.60;99.90
12089;DHT22;6107;49.078;8.578;2024-01-30T11:22:49;8.90;99.90
12089;DHT22;6107;49.078;8.578;2024-01-30T11:25:16;9.10;99.90
12089;DHT22;6107;49.078;8.578;2024-01-30T11:27:43;9.20;99.90
12089;DHT22;6107;49.078;8.578;2024-01-30T11:30:09;9.40;99.90
12089;DHT22;6107;49.078;8.578;2024-01-30T11:32:35;9.50;99.90
12089;DHT22;6107;49.078;8.578;2024-01-30T11:35:03;9.50;99.90
12089;DHT22;6107;49.078;8.578;2024-01-30T11:39:58;10.10;99.90
12089;DHT22;6107;49.078;8.578;2024-01-30T11:42:24;10.30;99.90
12089;DHT22;6107;49.078;8.578;2024-01-30T11:44:51;10.40;99.90
12089;DHT22;6107;49.078;8.578;2024-01-30T11:47:16;10.60;99.90
12089;DHT22;6107;49.078;8.578;2024-01-30T11:49:43;10.70;99.90
12089;DHT22;6107;49.078;8.578;2024-01-30T11:54:40;11.20;99.90
12089;DHT22;6107;49.078;8.578;2024-01-30T11:57:05;11.10;99.90
12089;DHT22;6107;49.078;8.578;2024-01-30T11:59:31;10.60;99.90
12089;DHT22;6107;49.078;8.578;2024-01-30T12:01:56;10.40;99.90
12089;DHT22;6107;49.078;8.578;2024-01-30T12:04:22;10.50;99.90
12089;DHT22;6107;49.078;8.578;2024-01-30T12:06:51;10.10;99.90
12089;DHT22;6107;49.078;8.578;2024-01-30T12:09:17;10.20;99.90
12089;DHT22;6107;49.078;8.578;2024-01-30T12:11:46;10.20;99.90
12089;DHT22;6107;49.078;8.578;2024-01-30T12:14:13;10.00;99.90
12089;DHT22;6107;49.078;8.578;2024-01-30T12:16:39;10.10;99.90
12089;DHT22;6107;49.078;8.578;2024-01-30T12:19:04;10.60;99.90
12089;DHT22;6107;49.078;8.578;2024-01-30T12:21:30;10.80;99.90
12089;DHT22;6107;49.078;8.578;2024-01-30T12:24:00;10.90;99.90
12089;DHT22;6107;49.078;8.578;2024-01-30T12:26:26;10.80;99.90
12089;DHT22;6107;49.078;8.578;2024-01-30T12:28:55;11.00;99.90
12089;DHT22;6107;49.078;8.578;2024-01-30T12:31:32;11.00;99.90
12089;DHT22;6107;49.078;8.578;2024-01-30T12:34:02;11.10;99.90
12089;DHT22;6107;49.078;8.578;2024-01-30T12:53:36;12.70;99.90
12089;DHT22;6107;49.078;8.578;2024-01-30T12:56:01;12.80;99.90
12089;DHT22;6107;49.078;8.578;2024-01-30T12:58:27;12.60;99.90
12089;DHT22;6107;49.078;8.578;2024-01-30T13:00:54;12.10;99.90
12089;DHT22;6107;49.078;8.578;2024-01-30T13:03:19;11.80;99.90
12089;DHT22;6107;49.078;8.578;2024-01-30T13:05:45;11.60;99.90
12089;DHT22;6107;49.078;8.578;2024-01-30T13:08:11;11.80;99.90
12089;DHT22;6107;49.078;8.578;2024-01-30T13:10:36;11.70;99.90
12089;DHT22;6107;49.078;8.578;2024-01-30T13:13:02;11.60;99.90
12089;DHT22;6107;49.078;8.578;2024-01-30T13:15:28;12.00;99.90
12089;DHT22;6107;49.078;8.578;2024-01-30T13:17:53;12.30;99.90
12089;DHT22;6107;49.078;8.578;2024-01-30T13:20:20;12.30;99.90
12089;DHT22;6107;49.078;8.578;2024-01-30T13:22:47;12.20;99.90
12089;DHT22;6107;49.078;8.578;2024-01-30T13:25:15;12.00;99.90
12089;DHT22;6107;49.078;8.578;2024-01-30T13:27:40;12.10;99.90
12089;DHT22;6107;49.078;8.578;2024-01-30T13:30:07;12.10;99.90
12089;DHT22;6107;49.078;8.578;2024-01-30T13:32:34;12.00;99.90
12089;DHT22;6107;49.078;8.578;2024-01-30T13:35:00;12.00;99.90
12089;DHT22;6107;49.078;8.578;2024-01-30T13:37:25;12.10;99.90
12089;DHT22;6107;49.078;8.578;2024-01-30T13:39:51;11.90;99.90
12089;DHT22;6107;49.078;8.578;2024-01-30T13:42:17;11.90;99.90
12089;DHT22;6107;49.078;8.578;2024-01-30T13:44:42;11.90;99.90
12089;DHT22;6107;49.078;8.578;2024-01-30T13:47:09;11.70;99.90
12089;DHT22;6107;49.078;8.578;2024-01-30T13:49:35;11.70;99.90
12089;DHT22;6107;49.078;8.578;2024-01-30T13:52:00;11.70;99.90
12089;DHT22;6107;49.078;8.578;2024-01-30T13:54:26;11.60;99.90
12089;DHT22;6107;49.078;8.578;2024-01-30T13:59:18;11.40;99.90
12089;DHT22;6107;49.078;8.578;2024-01-30T14:01:48;11.30;99.90
12089;DHT22;6107;49.078;8.578;2024-01-30T14:04:14;11.40;99.90
12089;DHT22;6107;49.078;8.578;2024-01-30T14:06:40;11.20;99.90
12089;DHT22;6107;49.078;8.578;2024-01-30T14:09:06;11.30;99.90
12089;DHT22;6107;49.078;8.578;2024-01-30T14:11:31;11.20;99.90
12089;DHT22;6107;49.078;8.578;2024-01-30T14:13:57;11.20;99.90
12089;DHT22;6107;49.078;8.578;2024-01-30T14:16:23;11.30;99.90
12089;DHT22;6107;49.078;8.578;2024-01-30T14:18:50;11.40;99.90
12089;DHT22;6107;49.078;8.578;2024-01-30T14:21:15;11.40;99.90
12089;DHT22;6107;49.078;8.578;2024-01-30T14:23:41;11.40;99.90
12089;DHT22;6107;49.078;8.578;2024-01-30T14:26:06;11.40;99.90
12089;DHT22;6107;49.078;8.578;2024-01-30T14:28:32;11.40;99.90
12089;DHT22;6107;49.078;8.578;2024-01-30T14:30:58;11.30;99.90
12089;DHT22;6107;49.078;8.578;2024-01-30T14:33:23;11.20;99.90
12089;DHT22;6107;49.078;8.578;2024-01-30T14:35:49;11.20;99.90
12089;DHT22;6107;49.078;8.578;2024-01-30T14:38:15;11.20;99.90
12089;DHT22;6107;49.078;8.578;2024-01-30T14:40:41;11.30;99.90
12089;DHT22;6107;49.078;8.578;2024-01-30T14:43:07;11.20;99.90
12089;DHT22;6107;49.078;8.578;2024-01-30T14:45:33;11.10;99.90
12089;DHT22;6107;49.078;8.578;2024-01-30T14:47:59;11.00;99.90
12089;DHT22;6107;49.078;8.578;2024-01-30T14:50:25;11.10;99.90
12089;DHT22;6107;49.078;8.578;2024-01-30T14:52:52;11.20;99.90
12089;DHT22;6107;49.078;8.578;2024-01-30T14:55:17;11.20;99.90
12089;DHT22;6107;49.078;8.578;2024-01-30T14:57:43;11.00;99.90
12089;DHT22;6107;49.078;8.578;2024-01-30T15:00:11;11.10;99.90
12089;DHT22;6107;49.078;8.578;2024-01-30T15:02:37;11.00;99.90
12089;DHT22;6107;49.078;8.578;2024-01-30T15:05:03;11.10;99.90
12089;DHT22;6107;49.078;8.578;2024-01-30T15:07:29;11.10;99.90
12089;DHT22;6107;49.078;8.578;2024-01-30T15:09:55;11.10;99.90
12089;DHT22;6107;49.078;8.578;2024-01-30T15:12:23;11.10;99.90
12089;DHT22;6107;49.078;8.578;2024-01-30T15:14:49;10.90;99.90
12089;DHT22;6107;49.078;8.578;2024-01-30T15:17:19;10.90;99.90
12089;DHT22;6107;49.078;8.578;2024-01-30T15:19:47;10.90;99.90
12089;DHT22;6107;49.078;8.578;2024-01-30T15:22:13;10.80;99.90
12089;DHT22;6107;49.078;8.578;2024-01-30T15:24:38;10.80;99.90
12089;DHT22;6107;49.078;8.578;2024-01-30T15:27:04;10.40;99.90
12089;DHT22;6107;49.078;8.578;2024-01-30T15:29:30;10.40;99.90
12089;DHT22;6107;49.078;8.578;2024-01-30T15:31:55;10.50;99.90
12089;DHT22;6107;49.078;8.578;2024-01-30T15:34:21;10.60;99.90
12089;DHT22;6107;49.078;8.578;2024-01-30T15:36:47;10.60;99.90
12089;DHT22;6107;49.078;8.578;2024-01-30T15:39:14;10.50;99.90
12089;DHT22;6107;49.078;8.578;2024-01-30T15:41:41;10.50;99.90
12089;DHT22;6107;49.078;8.578;2024-01-30T15:44:06;10.50;99.90
12089;DHT22;6107;49.078;8.578;2024-01-30T15:46:33;10.50;99.90
12089;DHT22;6107;49.078;8.578;2024-01-30T15:48:58;10.40;99.90
12089;DHT22;6107;49.078;8.578;2024-01-30T15:51:25;10.40;99.90
12089;DHT22;6107;49.078;8.578;2024-01-30T15:53:51;10.20;99.90
12089;DHT22;6107;49.078;8.578;2024-01-30T15:56:16;10.20;99.90
12089;DHT22;6107;49.078;8.578;2024-01-30T15:58:42;10.30;99.90
12089;DHT22;6107;49.078;8.578;2024-01-30T16:01:07;10.40;99.90
12089;DHT22;6107;49.078;8.578;2024-01-30T16:03:33;10.40;99.90
12089;DHT22;6107;49.078;8.578;2024-01-30T16:05:59;10.40;99.90
12089;DHT22;6107;49.078;8.578;2024-01-30T16:08:24;10.40;99.90
12089;DHT22;6107;49.078;8.578;2024-01-30T16:10:50;10.30;99.90
12089;DHT22;6107;49.078;8.578;2024-01-30T16:13:16;11.30;99.90
12089;DHT22;6107;49.078;8.578;2024-01-30T16:15:42;10.60;99.90
12089;DHT22;6107;49.078;8.578;2024-01-30T16:18:09;10.20;99.90